sensor_id;sensor_type;location;lat;lon;timestamp;P1;durP1;ratioP1;P2;durP2;ratioP2
22770;SDS011;11552;50.786;4.332;2022-11-12T00:02:00;21.00;;;15.13;;
22770;SDS011;11552;50.786;4.332;2022-11-12T00:08:51;18.92;;;13.93;;
22770;SDS011;11552;50.786;4.332;2022-11-12T00:11:16;18.52;;;13.15;;
22770;SDS011;11552;50.786;4.332;2022-11-12T00:13:42;17.75;;;13.77;;
22770;SDS011;11552;50.786;4.332;2022-11-12T00:16:07;18.63;;;12.75;;
22770;SDS011;11552;50.786;4.332;2022-11-12T00:18:33;17.02;;;12.13;;
22770;SDS011;11552;50.786;4.332;2022-11-12T00:20:59;16.58;;;12.15;;
22770;SDS011;11552;50.786;4.332;2022-11-12T00:23:25;13.00;;;10.55;;
22770;SDS011;11552;50.786;4.332;2022-11-12T00:25:57;13.75;;;10.75;;
22770;SDS011;11552;50.786;4.332;2022-11-12T00:28:24;13.10;;;9.65;;
22770;SDS011;11552;50.786;4.332;2022-11-12T00:32:04;15.07;;;9.63;;
22770;SDS011;11552;50.786;4.332;2022-11-12T00:34:31;16.30;;;10.23;;
22770;SDS011;11552;50.786;4.332;2022-11-12T00:36:57;12.75;;;10.05;;
22770;SDS011;11552;50.786;4.332;2022-11-12T00:39:23;12.60;;;10.45;;
22770;SDS011;11552;50.786;4.332;2022-11-12T00:41:49;13.50;;;11.13;;
22770;SDS011;11552;50.786;4.332;2022-11-12T00:44:15;14.30;;;10.98;;
22770;SDS011;11552;50.786;4.332;2022-11-12T00:46:40;15.18;;;11.48;;
22770;SDS011;11552;50.786;4.332;2022-11-12T00:49:06;12.70;;;9.75;;
22770;SDS011;11552;50.786;4.332;2022-11-12T00:53:41;15.35;;;9.80;;
22770;SDS011;11552;50.786;4.332;2022-11-12T00:56:27;13.05;;;9.30;;
22770;SDS011;11552;50.786;4.332;2022-11-12T00:58:53;11.23;;;9.00;;
22770;SDS011;11552;50.786;4.332;2022-11-12T01:01:19;19.60;;;10.55;;
22770;SDS011;11552;50.786;4.332;2022-11-12T01:03:45;14.23;;;9.50;;
22770;SDS011;11552;50.786;4.332;2022-11-12T01:06:12;12.05;;;9.77;;
22770;SDS011;11552;50.786;4.332;2022-11-12T01:08:40;13.90;;;10.38;;
22770;SDS011;11552;50.786;4.332;2022-11-12T01:11:10;11.48;;;9.65;;
22770;SDS011;11552;50.786;4.332;2022-11-12T01:13:38;13.15;;;10.82;;
22770;SDS011;11552;50.786;4.332;2022-11-12T01:16:09;12.77;;;9.90;;
22770;SDS011;11552;50.786;4.332;2022-11-12T01:19:40;14.20;;;10.25;;
22770;SDS011;11552;50.786;4.332;2022-11-12T01:22:06;14.13;;;9.60;;
22770;SDS011;11552;50.786;4.332;2022-11-12T01:24:31;12.38;;;10.00;;
22770;SDS011;11552;50.786;4.332;2022-11-12T01:26:57;12.65;;;10.23;;
22770;SDS011;11552;50.786;4.332;2022-11-12T01:29:22;17.20;;;10.40;;
22770;SDS011;11552;50.786;4.332;2022-11-12T01:31:48;14.80;;;10.27;;
22770;SDS011;11552;50.786;4.332;2022-11-12T01:35:56;13.20;;;10.57;;
22770;SDS011;11552;50.786;4.332;2022-11-12T01:41:13;10.35;;;9.25;;
22770;SDS011;11552;50.786;4.332;2022-11-12T01:43:44;11.10;;;9.48;;
22770;SDS011;11552;50.786;4.332;2022-11-12T01:49:34;12.30;;;9.75;;
22770;SDS011;11552;50.786;4.332;2022-11-12T01:54:17;12.50;;;9.25;;
22770;SDS011;11552;50.786;4.332;2022-11-12T01:56:45;10.63;;;9.10;;
22770;SDS011;11552;50.786;4.332;2022-11-12T01:59:50;11.73;;;9.85;;
22770;SDS011;11552;50.786;4.332;2022-11-12T02:02:33;13.70;;;10.18;;
22770;SDS011;11552;50.786;4.332;2022-11-12T02:05:01;12.40;;;10.15;;
22770;SDS011;11552;50.786;4.332;2022-11-12T02:07:28;12.80;;;9.80;;
22770;SDS011;11552;50.786;4.332;2022-11-12T02:09:56;13.10;;;10.95;;
22770;SDS011;11552;50.786;4.332;2022-11-12T02:13:46;12.55;;;10.18;;
22770;SDS011;11552;50.786;4.332;2022-11-12T02:19:04;12.90;;;10.80;;
22770;SDS011;11552;50.786;4.332;2022-11-12T02:21:32;12.88;;;11.50;;
22770;SDS011;11552;50.786;4.332;2022-11-12T02:24:05;13.60;;;10.73;;
22770;SDS011;11552;50.786;4.332;2022-11-12T02:26:52;15.17;;;10.90;;
22770;SDS011;11552;50.786;4.332;2022-11-12T02:29:19;13.45;;;10.85;;
22770;SDS011;11552;50.786;4.332;2022-11-12T02:31:46;13.38;;;10.60;;
22770;SDS011;11552;50.786;4.332;2022-11-12T02:34:12;12.57;;;10.85;;
22770;SDS011;11552;50.786;4.332;2022-11-12T02:36:37;12.88;;;11.05;;
22770;SDS011;11552;50.786;4.332;2022-11-12T02:39:03;12.00;;;10.80;;
22770;SDS011;11552;50.786;4.332;2022-11-12T02:41:29;13.15;;;10.35;;
22770;SDS011;11552;50.786;4.332;2022-11-12T02:43:54;12.50;;;10.25;;
22770;SDS011;11552;50.786;4.332;2022-11-12T02:46:20;13.60;;;9.88;;
22770;SDS011;11552;50.786;4.332;2022-11-12T02:48:46;11.65;;;9.38;;
22770;SDS011;11552;50.786;4.332;2022-11-12T02:51:11;11.63;;;8.73;;
22770;SDS011;11552;50.786;4.332;2022-11-12T02:53:37;10.65;;;9.15;;
22770;SDS011;11552;50.786;4.332;2022-11-12T02:56:02;13.15;;;9.80;;
22770;SDS011;11552;50.786;4.332;2022-11-12T02:58:28;10.45;;;8.98;;
22770;SDS011;11552;50.786;4.332;2022-11-12T03:02:40;12.30;;;9.45;;
22770;SDS011;11552;50.786;4.332;2022-11-12T03:05:22;11.27;;;9.07;;
22770;SDS011;11552;50.786;4.332;2022-11-12T03:07:59;21.90;;;14.18;;
22770;SDS011;11552;50.786;4.332;2022-11-12T03:10:27;13.30;;;9.85;;
22770;SDS011;11552;50.786;4.332;2022-11-12T03:12:53;12.20;;;9.45;;
22770;SDS011;11552;50.786;4.332;2022-11-12T03:15:21;10.23;;;8.77;;
22770;SDS011;11552;50.786;4.332;2022-11-12T03:17:46;11.15;;;9.00;;
22770;SDS011;11552;50.786;4.332;2022-11-12T03:20:12;11.18;;;9.10;;
22770;SDS011;11552;50.786;4.332;2022-11-12T03:22:38;10.98;;;8.90;;
22770;SDS011;11552;50.786;4.332;2022-11-12T03:25:04;12.10;;;8.90;;
22770;SDS011;11552;50.786;4.332;2022-11-12T03:27:31;10.98;;;9.20;;
22770;SDS011;11552;50.786;4.332;2022-11-12T03:29:57;10.55;;;8.65;;
22770;SDS011;11552;50.786;4.332;2022-11-12T03:32:22;11.82;;;8.90;;
22770;SDS011;11552;50.786;4.332;2022-11-12T03:34:48;9.90;;;8.48;;
22770;SDS011;11552;50.786;4.332;2022-11-12T03:37:14;9.75;;;8.63;;
22770;SDS011;11552;50.786;4.332;2022-11-12T03:39:40;10.90;;;8.50;;
22770;SDS011;11552;50.786;4.332;2022-11-12T03:43:14;13.52;;;8.82;;
22770;SDS011;11552;50.786;4.332;2022-11-12T03:45:40;11.75;;;8.70;;
22770;SDS011;11552;50.786;4.332;2022-11-12T03:48:05;12.70;;;8.52;;
22770;SDS011;11552;50.786;4.332;2022-11-12T03:50:31;9.05;;;7.95;;
22770;SDS011;11552;50.786;4.332;2022-11-12T03:52:57;10.52;;;8.43;;
22770;SDS011;11552;50.786;4.332;2022-11-12T03:55:24;10.00;;;8.18;;
22770;SDS011;11552;50.786;4.332;2022-11-12T03:57:52;13.73;;;8.30;;
22770;SDS011;11552;50.786;4.332;2022-11-12T04:00:19;9.18;;;8.20;;
22770;SDS011;11552;50.786;4.332;2022-11-12T04:02:46;11.73;;;8.32;;
22770;SDS011;11552;50.786;4.332;2022-11-12T04:05:26;12.88;;;8.48;;
22770;SDS011;11552;50.786;4.332;2022-11-12T04:08:20;10.00;;;8.43;;
22770;SDS011;11552;50.786;4.332;2022-11-12T04:11:44;10.60;;;7.63;;
22770;SDS011;11552;50.786;4.332;2022-11-12T04:14:10;9.82;;;8.20;;
22770;SDS011;11552;50.786;4.332;2022-11-12T04:16:36;9.88;;;8.25;;
22770;SDS011;11552;50.786;4.332;2022-11-12T04:20:23;10.52;;;8.63;;
22770;SDS011;11552;50.786;4.332;2022-11-12T04:23:07;9.90;;;7.90;;
22770;SDS011;11552;50.786;4.332;2022-11-12T04:25:33;9.85;;;8.10;;
22770;SDS011;11552;50.786;4.332;2022-11-12T04:29:49;9.20;;;7.40;;
22770;SDS011;11552;50.786;4.332;2022-11-12T04:32:35;10.82;;;8.35;;
22770;SDS011;11552;50.786;4.332;2022-11-12T04:35:05;10.98;;;8.25;;
22770;SDS011;11552;50.786;4.332;2022-11-12T04:37:33;11.20;;;7.90;;
22770;SDS011;11552;50.786;4.332;2022-11-12T04:40:15;12.25;;;7.90;;
22770;SDS011;11552;50.786;4.332;2022-11-12T04:43:00;9.65;;;7.20;;
22770;SDS011;11552;50.786;4.332;2022-11-12T04:45:46;11.73;;;8.45;;
22770;SDS011;11552;50.786;4.332;2022-11-12T04:48:14;9.95;;;7.28;;
22770;SDS011;11552;50.786;4.332;2022-11-12T04:50:41;10.68;;;7.93;;
22770;SDS011;11552;50.786;4.332;2022-11-12T04:53:09;8.93;;;7.60;;
22770;SDS011;11552;50.786;4.332;2022-11-12T04:55:34;8.55;;;6.75;;
22770;SDS011;11552;50.786;4.332;2022-11-12T04:58:00;9.07;;;7.72;;
22770;SDS011;11552;50.786;4.332;2022-11-12T05:00:26;9.07;;;7.53;;
22770;SDS011;11552;50.786;4.332;2022-11-12T05:04:04;8.70;;;7.40;;
22770;SDS011;11552;50.786;4.332;2022-11-12T05:06:29;8.65;;;7.38;;
22770;SDS011;11552;50.786;4.332;2022-11-12T05:09:13;9.25;;;7.60;;
22770;SDS011;11552;50.786;4.332;2022-11-12T05:11:39;10.43;;;7.28;;
22770;SDS011;11552;50.786;4.332;2022-11-12T05:14:04;8.98;;;6.90;;
22770;SDS011;11552;50.786;4.332;2022-11-12T05:16:30;7.70;;;6.22;;
22770;SDS011;11552;50.786;4.332;2022-11-12T05:18:56;9.65;;;7.22;;
22770;SDS011;11552;50.786;4.332;2022-11-12T05:21:21;8.00;;;7.05;;
22770;SDS011;11552;50.786;4.332;2022-11-12T05:24:05;8.93;;;7.18;;
22770;SDS011;11552;50.786;4.332;2022-11-12T05:26:31;8.63;;;7.45;;
22770;SDS011;11552;50.786;4.332;2022-11-12T05:28:57;11.10;;;7.18;;
22770;SDS011;11552;50.786;4.332;2022-11-12T05:31:22;14.82;;;7.88;;
22770;SDS011;11552;50.786;4.332;2022-11-12T05:33:48;11.13;;;7.25;;
22770;SDS011;11552;50.786;4.332;2022-11-12T05:36:13;11.20;;;6.70;;
22770;SDS011;11552;50.786;4.332;2022-11-12T05:38:39;9.45;;;6.95;;
22770;SDS011;11552;50.786;4.332;2022-11-12T05:41:05;12.05;;;8.05;;
22770;SDS011;11552;50.786;4.332;2022-11-12T05:43:30;9.05;;;6.88;;
22770;SDS011;11552;50.786;4.332;2022-11-12T05:45:56;11.20;;;6.88;;
22770;SDS011;11552;50.786;4.332;2022-11-12T05:48:21;11.20;;;7.10;;
22770;SDS011;11552;50.786;4.332;2022-11-12T05:50:51;10.63;;;6.90;;
22770;SDS011;11552;50.786;4.332;2022-11-12T05:53:17;12.57;;;6.30;;
22770;SDS011;11552;50.786;4.332;2022-11-12T05:55:42;14.75;;;7.07;;
22770;SDS011;11552;50.786;4.332;2022-11-12T05:58:08;19.77;;;7.80;;
22770;SDS011;11552;50.786;4.332;2022-11-12T06:00:34;10.57;;;6.90;;
22770;SDS011;11552;50.786;4.332;2022-11-12T06:03:19;7.63;;;6.82;;
22770;SDS011;11552;50.786;4.332;2022-11-12T06:05:45;8.52;;;7.25;;
22770;SDS011;11552;50.786;4.332;2022-11-12T06:08:11;9.90;;;7.07;;
22770;SDS011;11552;50.786;4.332;2022-11-12T06:10:36;10.73;;;7.97;;
22770;SDS011;11552;50.786;4.332;2022-11-12T06:13:02;11.82;;;8.18;;
22770;SDS011;11552;50.786;4.332;2022-11-12T06:15:28;8.93;;;7.60;;
22770;SDS011;11552;50.786;4.332;2022-11-12T06:17:53;12.35;;;8.82;;
22770;SDS011;11552;50.786;4.332;2022-11-12T06:20:44;13.50;;;8.25;;
22770;SDS011;11552;50.786;4.332;2022-11-12T06:23:30;10.27;;;7.25;;
22770;SDS011;11552;50.786;4.332;2022-11-12T06:25:56;9.85;;;7.78;;
22770;SDS011;11552;50.786;4.332;2022-11-12T06:28:21;10.80;;;7.95;;
22770;SDS011;11552;50.786;4.332;2022-11-12T06:30:47;9.80;;;7.68;;
22770;SDS011;11552;50.786;4.332;2022-11-12T06:33:12;15.57;;;8.27;;
22770;SDS011;11552;50.786;4.332;2022-11-12T06:35:38;10.73;;;8.02;;
22770;SDS011;11552;50.786;4.332;2022-11-12T06:38:03;9.10;;;7.28;;
22770;SDS011;11552;50.786;4.332;2022-11-12T06:40:29;12.48;;;7.13;;
22770;SDS011;11552;50.786;4.332;2022-11-12T06:42:56;11.13;;;7.80;;
22770;SDS011;11552;50.786;4.332;2022-11-12T06:45:22;12.75;;;8.50;;
22770;SDS011;11552;50.786;4.332;2022-11-12T06:47:48;11.40;;;8.43;;
22770;SDS011;11552;50.786;4.332;2022-11-12T06:50:14;11.15;;;8.32;;
22770;SDS011;11552;50.786;4.332;2022-11-12T06:54:45;12.50;;;8.70;;
22770;SDS011;11552;50.786;4.332;2022-11-12T06:57:11;10.93;;;8.25;;
22770;SDS011;11552;50.786;4.332;2022-11-12T06:59:36;10.73;;;7.80;;
22770;SDS011;11552;50.786;4.332;2022-11-12T07:02:02;15.50;;;8.82;;
22770;SDS011;11552;50.786;4.332;2022-11-12T07:04:28;13.68;;;8.75;;
22770;SDS011;11552;50.786;4.332;2022-11-12T07:07:13;11.60;;;8.27;;
22770;SDS011;11552;50.786;4.332;2022-11-12T07:12:12;11.23;;;8.25;;
22770;SDS011;11552;50.786;4.332;2022-11-12T07:16:24;9.27;;;8.27;;
22770;SDS011;11552;50.786;4.332;2022-11-12T07:18:49;10.70;;;8.40;;
22770;SDS011;11552;50.786;4.332;2022-11-12T07:22:39;10.18;;;7.80;;
22770;SDS011;11552;50.786;4.332;2022-11-12T07:25:05;10.13;;;8.10;;
22770;SDS011;11552;50.786;4.332;2022-11-12T07:28:14;12.77;;;9.55;;
22770;SDS011;11552;50.786;4.332;2022-11-12T07:30:39;10.57;;;8.90;;
22770;SDS011;11552;50.786;4.332;2022-11-12T07:33:05;12.57;;;9.05;;
22770;SDS011;11552;50.786;4.332;2022-11-12T07:35:31;11.30;;;8.30;;
22770;SDS011;11552;50.786;4.332;2022-11-12T07:37:56;14.80;;;9.77;;
22770;SDS011;11552;50.786;4.332;2022-11-12T07:42:48;11.25;;;9.15;;
22770;SDS011;11552;50.786;4.332;2022-11-12T07:45:14;13.18;;;9.40;;
22770;SDS011;11552;50.786;4.332;2022-11-12T07:47:39;12.02;;;9.55;;
22770;SDS011;11552;50.786;4.332;2022-11-12T07:50:05;15.85;;;10.15;;
22770;SDS011;11552;50.786;4.332;2022-11-12T07:52:58;12.80;;;9.18;;
22770;SDS011;11552;50.786;4.332;2022-11-12T07:55:24;15.20;;;10.13;;
22770;SDS011;11552;50.786;4.332;2022-11-12T07:57:49;15.60;;;10.70;;
22770;SDS011;11552;50.786;4.332;2022-11-12T08:00:17;14.52;;;10.77;;
22770;SDS011;11552;50.786;4.332;2022-11-12T08:02:43;12.20;;;10.18;;
22770;SDS011;11552;50.786;4.332;2022-11-12T08:05:09;15.32;;;10.48;;
22770;SDS011;11552;50.786;4.332;2022-11-12T08:07:34;12.82;;;10.57;;
22770;SDS011;11552;50.786;4.332;2022-11-12T08:10:01;14.43;;;10.43;;
22770;SDS011;11552;50.786;4.332;2022-11-12T08:12:27;16.02;;;11.32;;
22770;SDS011;11552;50.786;4.332;2022-11-12T08:14:53;13.02;;;10.68;;
22770;SDS011;11552;50.786;4.332;2022-11-12T08:17:19;15.07;;;10.65;;
22770;SDS011;11552;50.786;4.332;2022-11-12T08:19:44;18.48;;;10.73;;
22770;SDS011;11552;50.786;4.332;2022-11-12T08:22:10;20.85;;;11.40;;
22770;SDS011;11552;50.786;4.332;2022-11-12T08:24:36;14.20;;;10.50;;
22770;SDS011;11552;50.786;4.332;2022-11-12T08:27:01;11.68;;;9.45;;
22770;SDS011;11552;50.786;4.332;2022-11-12T08:29:27;10.75;;;9.63;;
22770;SDS011;11552;50.786;4.332;2022-11-12T08:31:52;13.82;;;10.18;;
22770;SDS011;11552;50.786;4.332;2022-11-12T08:34:18;16.80;;;10.90;;
22770;SDS011;11552;50.786;4.332;2022-11-12T08:36:44;13.75;;;9.90;;
22770;SDS011;11552;50.786;4.332;2022-11-12T08:41:26;15.50;;;10.45;;
22770;SDS011;11552;50.786;4.332;2022-11-12T08:43:52;14.38;;;9.73;;
22770;SDS011;11552;50.786;4.332;2022-11-12T08:46:17;10.68;;;7.78;;
22770;SDS011;11552;50.786;4.332;2022-11-12T08:48:43;11.55;;;7.25;;
22770;SDS011;11552;50.786;4.332;2022-11-12T08:51:08;16.25;;;7.30;;
22770;SDS011;11552;50.786;4.332;2022-11-12T08:56:29;14.82;;;7.00;;
22770;SDS011;11552;50.786;4.332;2022-11-12T08:58:55;11.95;;;6.35;;
22770;SDS011;11552;50.786;4.332;2022-11-12T09:01:21;11.82;;;5.22;;
22770;SDS011;11552;50.786;4.332;2022-11-12T09:03:47;8.15;;;5.40;;
22770;SDS011;11552;50.786;4.332;2022-11-12T09:06:13;12.40;;;5.50;;
22770;SDS011;11552;50.786;4.332;2022-11-12T09:08:39;12.90;;;5.78;;
22770;SDS011;11552;50.786;4.332;2022-11-12T09:11:05;10.68;;;5.70;;
22770;SDS011;11552;50.786;4.332;2022-11-12T09:13:31;14.07;;;5.18;;
22770;SDS011;11552;50.786;4.332;2022-11-12T09:16:02;44.28;;;7.93;;
22770;SDS011;11552;50.786;4.332;2022-11-12T09:18:29;24.13;;;5.90;;
22770;SDS011;11552;50.786;4.332;2022-11-12T09:21:05;70.43;;;11.52;;
22770;SDS011;11552;50.786;4.332;2022-11-12T09:24:57;11.05;;;5.22;;
22770;SDS011;11552;50.786;4.332;2022-11-12T09:27:25;14.32;;;5.70;;
22770;SDS011;11552;50.786;4.332;2022-11-12T09:30:16;10.75;;;5.53;;
22770;SDS011;11552;50.786;4.332;2022-11-12T09:32:42;9.93;;;4.93;;
22770;SDS011;11552;50.786;4.332;2022-11-12T09:35:07;12.50;;;5.10;;
22770;SDS011;11552;50.786;4.332;2022-11-12T09:37:35;11.32;;;6.00;;
22770;SDS011;11552;50.786;4.332;2022-11-12T09:40:02;14.48;;;5.35;;
22770;SDS011;11552;50.786;4.332;2022-11-12T09:45:33;10.30;;;4.93;;
22770;SDS011;11552;50.786;4.332;2022-11-12T09:48:00;19.52;;;4.72;;
22770;SDS011;11552;50.786;4.332;2022-11-12T09:51:42;13.57;;;4.32;;
22770;SDS011;11552;50.786;4.332;2022-11-12T09:56:37;10.25;;;4.68;;
22770;SDS011;11552;50.786;4.332;2022-11-12T10:08:32;8.77;;;5.47;;
22770;SDS011;11552;50.786;4.332;2022-11-12T10:19:21;12.38;;;6.40;;
22770;SDS011;11552;50.786;4.332;2022-11-12T10:24:24;9.18;;;4.93;;
22770;SDS011;11552;50.786;4.332;2022-11-12T10:26:54;7.78;;;4.65;;
22770;SDS011;11552;50.786;4.332;2022-11-12T10:32:34;10.35;;;5.10;;
22770;SDS011;11552;50.786;4.332;2022-11-12T10:35:01;7.18;;;4.97;;
22770;SDS011;11552;50.786;4.332;2022-11-12T10:44:45;8.20;;;4.90;;
22770;SDS011;11552;50.786;4.332;2022-11-12T10:47:21;14.35;;;5.45;;
22770;SDS011;11552;50.786;4.332;2022-11-12T10:52:57;7.35;;;4.75;;
22770;SDS011;11552;50.786;4.332;2022-11-12T10:55:29;7.57;;;4.93;;
22770;SDS011;11552;50.786;4.332;2022-11-12T10:58:17;7.65;;;5.07;;
22770;SDS011;11552;50.786;4.332;2022-11-12T11:06:59;13.70;;;6.10;;
22770;SDS011;11552;50.786;4.332;2022-11-12T11:09:31;8.20;;;5.35;;
22770;SDS011;11552;50.786;4.332;2022-11-12T11:11:58;11.02;;;5.38;;
22770;SDS011;11552;50.786;4.332;2022-11-12T11:14:26;12.75;;;5.80;;
22770;SDS011;11552;50.786;4.332;2022-11-12T11:16:58;11.93;;;5.78;;
22770;SDS011;11552;50.786;4.332;2022-11-12T11:23:46;9.60;;;5.30;;
22770;SDS011;11552;50.786;4.332;2022-11-12T11:32:16;7.80;;;5.53;;
22770;SDS011;11552;50.786;4.332;2022-11-12T11:39:41;12.23;;;4.97;;
22770;SDS011;11552;50.786;4.332;2022-11-12T11:42:46;12.30;;;4.80;;
22770;SDS011;11552;50.786;4.332;2022-11-12T11:51:15;7.07;;;4.43;;
22770;SDS011;11552;50.786;4.332;2022-11-12T11:56:39;9.02;;;4.82;;
22770;SDS011;11552;50.786;4.332;2022-11-12T11:59:14;6.90;;;4.70;;
22770;SDS011;11552;50.786;4.332;2022-11-12T12:07:16;11.85;;;5.65;;
22770;SDS011;11552;50.786;4.332;2022-11-12T12:17:45;11.43;;;5.63;;
22770;SDS011;11552;50.786;4.332;2022-11-12T12:20:48;9.02;;;5.25;;
22770;SDS011;11552;50.786;4.332;2022-11-12T12:26:08;9.25;;;4.60;;
22770;SDS011;11552;50.786;4.332;2022-11-12T12:28:57;6.43;;;4.65;;
22770;SDS011;11552;50.786;4.332;2022-11-12T12:33:50;15.38;;;5.20;;
22770;SDS011;11552;50.786;4.332;2022-11-12T12:36:29;7.32;;;4.07;;
22770;SDS011;11552;50.786;4.332;2022-11-12T12:41:30;8.98;;;4.72;;
22770;SDS011;11552;50.786;4.332;2022-11-12T12:44:07;8.90;;;4.35;;
22770;SDS011;11552;50.786;4.332;2022-11-12T12:46:37;5.88;;;4.00;;
22770;SDS011;11552;50.786;4.332;2022-11-12T12:49:13;7.25;;;4.30;;
22770;SDS011;11552;50.786;4.332;2022-11-12T12:51:41;5.97;;;4.10;;
22770;SDS011;11552;50.786;4.332;2022-11-12T12:57:04;9.23;;;4.35;;
22770;SDS011;11552;50.786;4.332;2022-11-12T12:59:50;9.05;;;4.07;;
22770;SDS011;11552;50.786;4.332;2022-11-12T13:02:22;5.85;;;3.78;;
22770;SDS011;11552;50.786;4.332;2022-11-12T13:07:20;7.80;;;3.53;;
22770;SDS011;11552;50.786;4.332;2022-11-12T13:16:06;9.57;;;3.80;;
22770;SDS011;11552;50.786;4.332;2022-11-12T13:21:14;6.20;;;3.45;;
22770;SDS011;11552;50.786;4.332;2022-11-12T13:41:44;6.38;;;3.50;;
22770;SDS011;11552;50.786;4.332;2022-11-12T13:44:28;6.28;;;3.13;;
22770;SDS011;11552;50.786;4.332;2022-11-12T13:46:55;9.07;;;4.43;;
22770;SDS011;11552;50.786;4.332;2022-11-12T13:49:21;10.27;;;4.50;;
22770;SDS011;11552;50.786;4.332;2022-11-12T13:51:47;9.23;;;4.75;;
22770;SDS011;11552;50.786;4.332;2022-11-12T13:57:15;18.45;;;3.95;;
22770;SDS011;11552;50.786;4.332;2022-11-12T13:59:44;6.88;;;3.67;;
22770;SDS011;11552;50.786;4.332;2022-11-12T14:02:19;4.43;;;3.30;;
22770;SDS011;11552;50.786;4.332;2022-11-12T14:04:50;6.47;;;3.72;;
22770;SDS011;11552;50.786;4.332;2022-11-12T14:07:24;11.90;;;4.35;;
22770;SDS011;11552;50.786;4.332;2022-11-12T14:10:23;7.57;;;3.92;;
22770;SDS011;11552;50.786;4.332;2022-11-12T14:24:34;8.65;;;4.82;;
22770;SDS011;11552;50.786;4.332;2022-11-12T14:26:59;7.53;;;5.15;;
22770;SDS011;11552;50.786;4.332;2022-11-12T14:29:25;8.88;;;4.85;;
22770;SDS011;11552;50.786;4.332;2022-11-12T14:32:00;9.55;;;4.95;;
22770;SDS011;11552;50.786;4.332;2022-11-12T14:36:04;7.72;;;4.75;;
22770;SDS011;11552;50.786;4.332;2022-11-12T14:38:47;11.15;;;4.93;;
22770;SDS011;11552;50.786;4.332;2022-11-12T14:41:26;11.77;;;5.15;;
22770;SDS011;11552;50.786;4.332;2022-11-12T14:44:00;11.60;;;5.20;;
22770;SDS011;11552;50.786;4.332;2022-11-12T14:49:05;10.85;;;5.55;;
22770;SDS011;11552;50.786;4.332;2022-11-12T14:51:57;8.35;;;4.50;;
22770;SDS011;11552;50.786;4.332;2022-11-12T14:54:31;11.20;;;5.47;;
22770;SDS011;11552;50.786;4.332;2022-11-12T14:57:19;12.52;;;5.15;;
22770;SDS011;11552;50.786;4.332;2022-11-12T14:59:51;8.68;;;5.00;;
22770;SDS011;11552;50.786;4.332;2022-11-12T15:02:18;10.20;;;5.43;;
22770;SDS011;11552;50.786;4.332;2022-11-12T15:10:35;7.78;;;4.90;;
22770;SDS011;11552;50.786;4.332;2022-11-12T15:13:06;9.63;;;5.07;;
22770;SDS011;11552;50.786;4.332;2022-11-12T15:15:33;10.35;;;5.50;;
22770;SDS011;11552;50.786;4.332;2022-11-12T15:18:14;10.25;;;4.85;;
22770;SDS011;11552;50.786;4.332;2022-11-12T15:20:59;9.52;;;4.88;;
22770;SDS011;11552;50.786;4.332;2022-11-12T15:23:35;12.77;;;5.43;;
22770;SDS011;11552;50.786;4.332;2022-11-12T15:29:12;9.43;;;5.50;;
22770;SDS011;11552;50.786;4.332;2022-11-12T15:37:30;14.30;;;5.65;;
22770;SDS011;11552;50.786;4.332;2022-11-12T15:40:11;10.57;;;6.03;;
22770;SDS011;11552;50.786;4.332;2022-11-12T15:42:42;9.50;;;5.35;;
22770;SDS011;11552;50.786;4.332;2022-11-12T15:45:16;12.68;;;5.55;;
22770;SDS011;11552;50.786;4.332;2022-11-12T15:47:43;10.23;;;5.30;;
22770;SDS011;11552;50.786;4.332;2022-11-12T15:50:14;10.98;;;6.03;;
22770;SDS011;11552;50.786;4.332;2022-11-12T15:52:42;9.52;;;6.18;;
22770;SDS011;11552;50.786;4.332;2022-11-12T15:55:08;15.38;;;6.55;;
22770;SDS011;11552;50.786;4.332;2022-11-12T15:57:39;13.43;;;6.10;;
22770;SDS011;11552;50.786;4.332;2022-11-12T16:02:43;11.70;;;5.97;;
22770;SDS011;11552;50.786;4.332;2022-11-12T16:05:12;12.05;;;7.07;;
22770;SDS011;11552;50.786;4.332;2022-11-12T16:07:38;13.60;;;7.82;;
22770;SDS011;11552;50.786;4.332;2022-11-12T16:10:04;15.32;;;7.30;;
22770;SDS011;11552;50.786;4.332;2022-11-12T16:12:31;16.90;;;8.20;;
22770;SDS011;11552;50.786;4.332;2022-11-12T16:14:59;19.92;;;8.38;;
22770;SDS011;11552;50.786;4.332;2022-11-12T16:17:25;24.88;;;12.98;;
22770;SDS011;11552;50.786;4.332;2022-11-12T16:19:51;27.98;;;14.00;;
22770;SDS011;11552;50.786;4.332;2022-11-12T16:22:16;25.77;;;13.95;;
22770;SDS011;11552;50.786;4.332;2022-11-12T16:24:42;25.05;;;12.57;;
22770;SDS011;11552;50.786;4.332;2022-11-12T16:28:49;21.88;;;11.50;;
22770;SDS011;11552;50.786;4.332;2022-11-12T16:31:14;19.85;;;11.57;;
22770;SDS011;11552;50.786;4.332;2022-11-12T16:33:40;20.08;;;11.75;;
22770;SDS011;11552;50.786;4.332;2022-11-12T16:36:12;40.25;;;29.55;;
22770;SDS011;11552;50.786;4.332;2022-11-12T16:38:39;30.08;;;22.38;;
22770;SDS011;11552;50.786;4.332;2022-11-12T16:41:04;30.38;;;20.50;;
22770;SDS011;11552;50.786;4.332;2022-11-12T16:44:24;21.33;;;13.35;;
22770;SDS011;11552;50.786;4.332;2022-11-12T16:46:49;17.33;;;9.90;;
22770;SDS011;11552;50.786;4.332;2022-11-12T16:49:15;11.10;;;8.93;;
22770;SDS011;11552;50.786;4.332;2022-11-12T16:51:41;16.90;;;8.07;;
22770;SDS011;11552;50.786;4.332;2022-11-12T16:54:07;11.43;;;7.28;;
22770;SDS011;11552;50.786;4.332;2022-11-12T16:56:32;13.80;;;7.70;;
22770;SDS011;11552;50.786;4.332;2022-11-12T17:00:04;17.08;;;8.85;;
22770;SDS011;11552;50.786;4.332;2022-11-12T17:02:31;13.43;;;8.23;;
22770;SDS011;11552;50.786;4.332;2022-11-12T17:04:59;16.80;;;8.23;;
22770;SDS011;11552;50.786;4.332;2022-11-12T17:07:26;18.00;;;8.70;;
22770;SDS011;11552;50.786;4.332;2022-11-12T17:09:51;12.57;;;7.40;;
22770;SDS011;11552;50.786;4.332;2022-11-12T17:12:17;12.57;;;8.35;;
22770;SDS011;11552;50.786;4.332;2022-11-12T17:14:43;15.35;;;8.38;;
22770;SDS011;11552;50.786;4.332;2022-11-12T17:17:08;17.20;;;11.90;;
22770;SDS011;11552;50.786;4.332;2022-11-12T17:19:34;19.98;;;15.40;;
22770;SDS011;11552;50.786;4.332;2022-11-12T17:21:59;16.30;;;11.90;;
22770;SDS011;11552;50.786;4.332;2022-11-12T17:24:25;16.50;;;10.10;;
22770;SDS011;11552;50.786;4.332;2022-11-12T17:26:51;14.88;;;10.35;;
22770;SDS011;11552;50.786;4.332;2022-11-12T17:35:00;17.60;;;11.45;;
22770;SDS011;11552;50.786;4.332;2022-11-12T17:37:25;12.10;;;8.75;;
22770;SDS011;11552;50.786;4.332;2022-11-12T17:39:51;11.30;;;8.32;;
22770;SDS011;11552;50.786;4.332;2022-11-12T17:42:16;11.27;;;7.53;;
22770;SDS011;11552;50.786;4.332;2022-11-12T17:44:43;14.52;;;9.80;;
22770;SDS011;11552;50.786;4.332;2022-11-12T17:47:10;19.30;;;10.73;;
22770;SDS011;11552;50.786;4.332;2022-11-12T17:49:36;17.17;;;11.50;;
22770;SDS011;11552;50.786;4.332;2022-11-12T17:52:01;21.38;;;12.95;;
22770;SDS011;11552;50.786;4.332;2022-11-12T17:54:27;23.05;;;13.65;;
22770;SDS011;11552;50.786;4.332;2022-11-12T17:56:53;18.40;;;13.65;;
22770;SDS011;11552;50.786;4.332;2022-11-12T17:59:18;16.90;;;13.80;;
22770;SDS011;11552;50.786;4.332;2022-11-12T18:01:44;23.70;;;17.50;;
22770;SDS011;11552;50.786;4.332;2022-11-12T18:04:09;27.00;;;18.17;;
22770;SDS011;11552;50.786;4.332;2022-11-12T18:06:36;30.25;;;18.92;;
22770;SDS011;11552;50.786;4.332;2022-11-12T18:09:03;26.58;;;17.67;;
22770;SDS011;11552;50.786;4.332;2022-11-12T18:11:46;51.67;;;21.35;;
22770;SDS011;11552;50.786;4.332;2022-11-12T18:14:15;144.85;;;30.88;;
22770;SDS011;11552;50.786;4.332;2022-11-12T18:16:41;62.65;;;24.20;;
22770;SDS011;11552;50.786;4.332;2022-11-12T18:19:07;39.58;;;21.27;;
22770;SDS011;11552;50.786;4.332;2022-11-12T18:21:35;54.17;;;26.20;;
22770;SDS011;11552;50.786;4.332;2022-11-12T18:25:34;34.70;;;25.65;;